sensor_id;sensor_type;location;lat;lon;timestamp;temperature;humidity
3402;DHT22;1714;49.756;8.610;2022-07-30T00:07:00;20.20;71.50
3402;DHT22;1714;49.756;8.610;2022-07-30T00:17:05;20.20;69.00
3402;DHT22;1714;49.756;8.610;2022-07-30T00:27:08;20.20;69.10
3402;DHT22;1714;49.756;8.610;2022-07-30T00:37:11;19.90;71.00
3402;DHT22;1714;49.756;8.610;2022-07-30T00:47:13;19.80;71.90
3402;DHT22;1714;49.756;8.610;2022-07-30T00:57:15;19.60;72.10
3402;DHT22;1714;49.756;8.610;2022-07-30T01:07:17;19.50;72.10
3402;DHT22;1714;49.756;8.610;2022-07-30T01:17:21;19.40;72.50
3402;DHT22;1714;49.756;8.610;2022-07-30T01:38:53;19.10;71.90
3402;DHT22;1714;49.756;8.610;2022-07-30T01:48:57;18.90;72.10
3402;DHT22;1714;49.756;8.610;2022-07-30T01:59:03;19.00;71.10
3402;DHT22;1714;49.756;8.610;2022-07-30T02:09:07;18.80;70.70
3402;DHT22;1714;49.756;8.610;2022-07-30T02:19:15;18.90;67.80
3402;DHT22;1714;49.756;8.610;2022-07-30T02:29:19;18.60;70.10
3402;DHT22;1714;49.756;8.610;2022-07-30T02:39:23;18.60;69.10
3402;DHT22;1714;49.756;8.610;2022-07-30T02:49:28;18.40;68.60
3402;DHT22;1714;49.756;8.610;2022-07-30T02:59:31;18.40;69.50
3402;DHT22;1714;49.756;8.610;2022-07-30T03:09:36;18.30;67.20
3402;DHT22;1714;49.756;8.610;2022-07-30T03:19:54;18.20;67.30
3402;DHT22;1714;49.756;8.610;2022-07-30T03:29:57;18.10;66.90
3402;DHT22;1714;49.756;8.610;2022-07-30T03:40:05;18.00;67.30
3402;DHT22;1714;49.756;8.610;2022-07-30T03:50:09;17.80;67.10
3402;DHT22;1714;49.756;8.610;2022-07-30T04:00:14;17.80;67.40
3402;DHT22;1714;49.756;8.610;2022-07-30T04:10:22;17.70;69.50
3402;DHT22;1714;49.756;8.610;2022-07-30T04:20:46;17.60;70.60
3402;DHT22;1714;49.756;8.610;2022-07-30T04:30:59;17.60;71.30
3402;DHT22;1714;49.756;8.610;2022-07-30T04:41:05;17.60;69.60
3402;DHT22;1714;49.756;8.610;2022-07-30T04:51:35;17.50;73.00
3402;DHT22;1714;49.756;8.610;2022-07-30T05:01:42;17.60;75.10
3402;DHT22;1714;49.756;8.610;2022-07-30T05:11:53;17.70;76.10
3402;DHT22;1714;49.756;8.610;2022-07-30T05:21:55;18.00;76.30
3402;DHT22;1714;49.756;8.610;2022-07-30T05:32:04;17.80;83.90
3402;DHT22;1714;49.756;8.610;2022-07-30T05:42:08;18.10;79.40
3402;DHT22;1714;49.756;8.610;2022-07-30T05:52:18;18.00;81.50
3402;DHT22;1714;49.756;8.610;2022-07-30T06:02:23;17.90;79.80
3402;DHT22;1714;49.756;8.610;2022-07-30T06:12:46;18.10;63.60
3402;DHT22;1714;49.756;8.610;2022-07-30T06:22:50;18.40;61.90
3402;DHT22;1714;49.756;8.610;2022-07-30T06:33:04;18.70;54.20
3402;DHT22;1714;49.756;8.610;2022-07-30T06:43:06;18.80;53.50
3402;DHT22;1714;49.756;8.610;2022-07-30T06:53:27;19.00;48.30
3402;DHT22;1714;49.756;8.610;2022-07-30T07:15:15;19.50;39.20
3402;DHT22;1714;49.756;8.610;2022-07-30T07:25:16;20.10;39.90
3402;DHT22;1714;49.756;8.610;2022-07-30T07:35:22;20.90;35.50
3402;DHT22;1714;49.756;8.610;2022-07-30T07:45:24;21.80;29.30
3402;DHT22;1714;49.756;8.610;2022-07-30T07:55:33;22.80;26.00
3402;DHT22;1714;49.756;8.610;2022-07-30T08:05:41;23.30;22.20
3402;DHT22;1714;49.756;8.610;2022-07-30T08:16:26;23.90;21.90
3402;DHT22;1714;49.756;8.610;2022-07-30T08:26:45;24.50;18.20
3402;DHT22;1714;49.756;8.610;2022-07-30T08:36:49;24.90;16.70
3402;DHT22;1714;49.756;8.610;2022-07-30T08:46:52;25.40;15.60
3402;DHT22;1714;49.756;8.610;2022-07-30T08:57:13;25.80;14.20
3402;DHT22;1714;49.756;8.610;2022-07-30T09:07:15;26.10;13.00
3402;DHT22;1714;49.756;8.610;2022-07-30T09:17:18;25.90;13.10
3402;DHT22;1714;49.756;8.610;2022-07-30T09:27:19;26.00;14.30
3402;DHT22;1714;49.756;8.610;2022-07-30T09:38:00;25.60;15.30
3402;DHT22;1714;49.756;8.610;2022-07-30T09:48:24;26.60;10.40
3402;DHT22;1714;49.756;8.610;2022-07-30T09:58:40;27.10;11.00
3402;DHT22;1714;49.756;8.610;2022-07-30T10:18:48;28.10;11.60
3402;DHT22;1714;49.756;8.610;2022-07-30T10:29:07;28.30;6.90
3402;DHT22;1714;49.756;8.610;2022-07-30T10:39:19;28.40;6.10
3402;DHT22;1714;49.756;8.610;2022-07-30T10:49:24;29.50;4.60
3402;DHT22;1714;49.756;8.610;2022-07-30T11:10:02;29.90;5.30
3402;DHT22;1714;49.756;8.610;2022-07-30T11:20:10;30.00;3.30
3402;DHT22;1714;49.756;8.610;2022-07-30T11:40:23;30.20;1.10
3402;DHT22;1714;49.756;8.610;2022-07-30T11:50:31;30.20;2.10
3402;DHT22;1714;49.756;8.610;2022-07-30T12:00:42;30.50;1.60
3402;DHT22;1714;49.756;8.610;2022-07-30T12:11:00;30.00;2.00
3402;DHT22;1714;49.756;8.610;2022-07-30T12:21:09;30.90;1.00
3402;DHT22;1714;49.756;8.610;2022-07-30T12:31:17;31.10;1.00
3402;DHT22;1714;49.756;8.610;2022-07-30T12:41:20;30.70;1.00
3402;DHT22;1714;49.756;8.610;2022-07-30T12:51:24;31.40;1.00
3402;DHT22;1714;49.756;8.610;2022-07-30T13:01:44;30.20;1.00
3402;DHT22;1714;49.756;8.610;2022-07-30T13:11:48;31.60;1.00
3402;DHT22;1714;49.756;8.610;2022-07-30T13:21:50;31.30;1.00
3402;DHT22;1714;49.756;8.610;2022-07-30T13:31:52;31.60;1.00
3402;DHT22;1714;49.756;8.610;2022-07-30T13:41:55;31.40;1.00
3402;DHT22;1714;49.756;8.610;2022-07-30T13:51:57;31.90;1.00
3402;DHT22;1714;49.756;8.610;2022-07-30T14:02:00;31.10;1.00
3402;DHT22;1714;49.756;8.610;2022-07-30T14:12:04;31.50;1.00
3402;DHT22;1714;49.756;8.610;2022-07-30T14:22:06;30.80;1.00
3402;DHT22;1714;49.756;8.610;2022-07-30T14:32:08;30.70;1.00
3402;DHT22;1714;49.756;8.610;2022-07-30T14:42:09;31.50;1.00
3402;DHT22;1714;49.756;8.610;2022-07-30T14:52:13;31.20;1.00
3402;DHT22;1714;49.756;8.610;2022-07-30T15:02:16;31.50;1.00
3402;DHT22;1714;49.756;8.610;2022-07-30T15:12:19;31.90;1.00
3402;DHT22;1714;49.756;8.610;2022-07-30T15:22:26;31.30;1.00
3402;DHT22;1714;49.756;8.610;2022-07-30T15:32:28;31.40;1.00
3402;DHT22;1714;49.756;8.610;2022-07-30T15:42:30;31.80;1.00
3402;DHT22;1714;49.756;8.610;2022-07-30T15:52:33;31.80;1.00
3402;DHT22;1714;49.756;8.610;2022-07-30T16:02:37;31.30;1.00
3402;DHT22;1714;49.756;8.610;2022-07-30T16:12:41;30.90;1.00
3402;DHT22;1714;49.756;8.610;2022-07-30T16:22:44;30.60;1.00
3402;DHT22;1714;49.756;8.610;2022-07-30T16:32:47;30.70;1.00
3402;DHT22;1714;49.756;8.610;2022-07-30T16:42:49;30.10;1.00
3402;DHT22;1714;49.756;8.610;2022-07-30T16:52:51;29.90;1.00
3402;DHT22;1714;49.756;8.610;2022-07-30T17:02:53;29.30;1.00
3402;DHT22;1714;49.756;8.610;2022-07-30T17:12:56;28.50;1.00
3402;DHT22;1714;49.756;8.610;2022-07-30T17:22:59;28.40;1.00
3402;DHT22;1714;49.756;8.610;2022-07-30T17:33:01;27.90;2.00
3402;DHT22;1714;49.756;8.610;2022-07-30T17:43:08;27.60;1.40
3402;DHT22;1714;49.756;8.610;2022-07-30T17:53:12;27.20;2.30
3402;DHT22;1714;49.756;8.610;2022-07-30T18:03:14;26.90;1.00
3402;DHT22;1714;49.756;8.610;2022-07-30T18:13:17;26.70;1.00
3402;DHT22;1714;49.756;8.610;2022-07-30T18:23:26;26.30;1.00
3402;DHT22;1714;49.756;8.610;2022-07-30T18:33:33;26.10;2.00
3402;DHT22;1714;49.756;8.610;2022-07-30T18:43:35;25.80;3.20
3402;DHT22;1714;49.756;8.610;2022-07-30T18:53:52;25.30;5.00
3402;DHT22;1714;49.756;8.610;2022-07-30T19:03:54;25.00;7.00
3402;DHT22;1714;49.756;8.610;2022-07-30T19:13:56;24.70;7.80
3402;DHT22;1714;49.756;8.610;2022-07-30T19:23:57;24.40;9.00
3402;DHT22;1714;49.756;8.610;2022-07-30T19:33:59;24.20;7.20
3402;DHT22;1714;49.756;8.610;2022-07-30T19:44:01;24.00;8.90
3402;DHT22;1714;49.756;8.610;2022-07-30T19:54:08;23.60;9.50
3402;DHT22;1714;49.756;8.610;2022-07-30T20:04:11;23.40;10.00
3402;DHT22;1714;49.756;8.610;2022-07-30T20:14:15;23.10;10.80
3402;DHT22;1714;49.756;8.610;2022-07-30T20:24:17;22.90;11.90
3402;DHT22;1714;49.756;8.610;2022-07-30T20:34:19;22.60;12.10
3402;DHT22;1714;49.756;8.610;2022-07-30T20:44:25;22.50;12.10
3402;DHT22;1714;49.756;8.610;2022-07-30T20:54:28;22.30;11.10
3402;DHT22;1714;49.756;8.610;2022-07-30T21:04:31;22.10;11.70
3402;DHT22;1714;49.756;8.610;2022-07-30T21:14:34;22.00;12.00
3402;DHT22;1714;49.756;8.610;2022-07-30T21:24:36;21.80;11.60
3402;DHT22;1714;49.756;8.610;2022-07-30T21:34:37;21.60;12.00
3402;DHT22;1714;49.756;8.610;2022-07-30T21:44:41;21.30;12.90
3402;DHT22;1714;49.756;8.610;2022-07-30T21:54:43;21.10;13.90
3402;DHT22;1714;49.756;8.610;2022-07-30T22:04:51;21.00;13.40
3402;DHT22;1714;49.756;8.610;2022-07-30T22:14:54;20.80;15.00
3402;DHT22;1714;49.756;8.610;2022-07-30T22:24:59;20.70;15.10
3402;DHT22;1714;49.756;8.610;2022-07-30T22:35:12;20.60;14.90
3402;DHT22;1714;49.756;8.610;2022-07-30T22:45:32;20.60;15.30
3402;DHT22;1714;49.756;8.610;2022-07-30T22:55:50;20.30;17.20
3402;DHT22;1714;49.756;8.610;2022-07-30T23:05:52;20.20;19.60
3402;DHT22;1714;49.756;8.610;2022-07-30T23:15:56;20.30;16.80
3402;DHT22;1714;49.756;8.610;2022-07-30T23:26:00;20.10;17.20
3402;DHT22;1714;49.756;8.610;2022-07-30T23:36:07;20.10;19.30
3402;DHT22;1714;49.756;8.610;2022-07-30T23:46:09;20.00;20.30
3402;DHT22;1714;49.756;8.610;2022-07-30T23:56:15;20.00;19.50
